sensor_id;sensor_type;location;lat;lon;timestamp;pressure;altitude;pressure_sealevel;temperature;humidity
60897;BME280;46749;32.932;-117.130;2023-06-01T00:00:07;100761.19;;;18.05;58.04
60897;BME280;46749;32.932;-117.130;2023-06-01T00:02:36;100784.84;;;18.10;57.64
60897;BME280;46749;32.932;-117.130;2023-06-01T00:05:02;100764.69;;;18.04;57.85
60897;BME280;46749;32.932;-117.130;2023-06-01T00:07:28;100771.63;;;17.93;58.31
60897;BME280;46749;32.932;-117.130;2023-06-01T00:09:55;100769.81;;;17.86;58.62
60897;BME280;46749;32.932;-117.130;2023-06-01T00:12:21;100770.75;;;17.94;58.42
60897;BME280;46749;32.932;-117.130;2023-06-01T00:14:48;100764.66;;;18.01;57.96
60897;BME280;46749;32.932;-117.130;2023-06-01T00:17:14;100770.81;;;18.08;57.98
60897;BME280;46749;32.932;-117.130;2023-06-01T00:19:40;100756.81;;;18.08;57.98
60897;BME280;46749;32.932;-117.130;2023-06-01T00:22:06;100775.13;;;17.95;58.06
60897;BME280;46749;32.932;-117.130;2023-06-01T00:24:33;100759.31;;;17.89;58.57
60897;BME280;46749;32.932;-117.130;2023-06-01T00:26:59;100762.84;;;17.94;58.32
60897;BME280;46749;32.932;-117.130;2023-06-01T00:29:25;100769.03;;;18.02;58.06
60897;BME280;46749;32.932;-117.130;2023-06-01T00:31:51;100748.91;;;18.08;57.88
60897;BME280;46749;32.932;-117.130;2023-06-01T00:34:18;100759.44;;;18.09;57.94
60897;BME280;46749;32.932;-117.130;2023-06-01T00:36:44;100747.09;;;17.96;58.26
60897;BME280;46749;32.932;-117.130;2023-06-01T00:39:10;100750.50;;;17.84;58.44
60897;BME280;46749;32.932;-117.130;2023-06-01T00:41:36;100743.47;;;17.77;59.00
60897;BME280;46749;32.932;-117.130;2023-06-01T00:44:03;100745.28;;;17.87;58.45
60897;BME280;46749;32.932;-117.130;2023-06-01T00:46:30;100739.22;;;17.97;58.11
60897;BME280;46749;32.932;-117.130;2023-06-01T00:48:58;100751.53;;;18.06;57.99
60897;BME280;46749;32.932;-117.130;2023-06-01T00:51:24;100749.81;;;18.10;58.11
60897;BME280;46749;32.932;-117.130;2023-06-01T00:53:51;100748.88;;;17.98;58.01
60897;BME280;46749;32.932;-117.130;2023-06-01T00:56:18;100740.91;;;17.86;58.56
60897;BME280;46749;32.932;-117.130;2023-06-01T00:58:44;100740.09;;;17.93;58.60
60897;BME280;46749;32.932;-117.130;2023-06-01T01:01:11;100735.75;;;18.01;58.21
60897;BME280;46749;32.932;-117.130;2023-06-01T01:03:49;100738.41;;;18.08;58.00
60897;BME280;46749;32.932;-117.130;2023-06-01T01:11:28;100729.53;;;17.87;58.77
60897;BME280;46749;32.932;-117.130;2023-06-01T01:14:05;100712.94;;;17.94;58.44
60897;BME280;46749;32.932;-117.130;2023-06-01T01:16:47;100713.84;;;18.02;58.33
60897;BME280;46749;32.932;-117.130;2023-06-01T01:22:30;100720.88;;;18.08;57.78
60897;BME280;46749;32.932;-117.130;2023-06-01T01:25:18;100715.56;;;17.97;58.30
60897;BME280;46749;32.932;-117.130;2023-06-01T01:30:37;100709.47;;;18.03;57.99
60897;BME280;46749;32.932;-117.130;2023-06-01T01:33:06;100706.00;;;18.09;57.78
60897;BME280;46749;32.932;-117.130;2023-06-01T01:35:33;100708.66;;;18.12;57.80
60897;BME280;46749;32.932;-117.130;2023-06-01T01:37:59;100698.09;;;18.05;57.92
60897;BME280;46749;32.932;-117.130;2023-06-01T01:40:26;100689.25;;;17.91;58.60
60897;BME280;46749;32.932;-117.130;2023-06-01T01:42:52;100711.19;;;17.92;58.36
60897;BME280;46749;32.932;-117.130;2023-06-01T01:45:19;100704.22;;;18.00;58.33
60897;BME280;46749;32.932;-117.130;2023-06-01T01:48:44;100686.72;;;18.08;58.00
60897;BME280;46749;32.932;-117.130;2023-06-01T01:51:01;100688.50;;;18.14;57.71
60897;BME280;46749;32.932;-117.130;2023-06-01T01:53:29;100687.59;;;18.04;58.18
60897;BME280;46749;32.932;-117.130;2023-06-01T01:55:57;100705.00;;;17.91;58.43
60897;BME280;46749;32.932;-117.130;2023-06-01T01:58:25;100697.16;;;17.96;58.34
60897;BME280;46749;32.932;-117.130;2023-06-01T02:00:53;100689.31;;;18.03;58.15
60897;BME280;46749;32.932;-117.130;2023-06-01T02:03:20;100697.25;;;18.11;57.77
60897;BME280;46749;32.932;-117.130;2023-06-01T02:05:46;100699.91;;;18.16;58.01
60897;BME280;46749;32.932;-117.130;2023-06-01T02:08:12;100698.09;;;18.05;57.95
60897;BME280;46749;32.932;-117.130;2023-06-01T02:10:39;100698.09;;;18.05;57.76
60897;BME280;46749;32.932;-117.130;2023-06-01T02:13:06;100701.66;;;18.11;57.74
60897;BME280;46749;32.932;-117.130;2023-06-01T02:15:33;100713.03;;;18.16;57.75
60897;BME280;46749;32.932;-117.130;2023-06-01T02:17:59;100713.94;;;18.18;57.77
60897;BME280;46749;32.932;-117.130;2023-06-01T02:20:25;100719.16;;;18.12;57.59
60897;BME280;46749;32.932;-117.130;2023-06-01T02:22:52;100708.59;;;17.98;58.04
60897;BME280;46749;32.932;-117.130;2023-06-01T02:25:18;100709.44;;;17.97;58.37
60897;BME280;46749;32.932;-117.130;2023-06-01T02:27:45;100712.13;;;18.04;58.13
60897;BME280;46749;32.932;-117.130;2023-06-01T02:30:11;100707.78;;;18.11;57.82
60897;BME280;46749;32.932;-117.130;2023-06-01T02:32:39;100706.03;;;18.16;57.53
60897;BME280;46749;32.932;-117.130;2023-06-01T02:35:05;100720.91;;;18.13;57.75
60897;BME280;46749;32.932;-117.130;2023-06-01T02:37:34;100722.59;;;17.98;58.05
60897;BME280;46749;32.932;-117.130;2023-06-01T02:40:01;100719.03;;;17.87;58.53
60897;BME280;46749;32.932;-117.130;2023-06-01T02:42:27;100719.03;;;17.86;58.55
60897;BME280;46749;32.932;-117.130;2023-06-01T02:44:53;100717.31;;;17.95;58.37
60897;BME280;46749;32.932;-117.130;2023-06-01T02:47:19;100718.22;;;18.03;58.31
60897;BME280;46749;32.932;-117.130;2023-06-01T02:49:45;100719.13;;;18.10;57.91
60897;BME280;46749;32.932;-117.130;2023-06-01T02:52:12;100717.38;;;18.09;57.78
60897;BME280;46749;32.932;-117.130;2023-06-01T02:54:38;100715.56;;;17.97;58.13
60897;BME280;46749;32.932;-117.130;2023-06-01T02:57:04;100718.22;;;17.99;58.33
60897;BME280;46749;32.932;-117.130;2023-06-01T02:59:31;100725.28;;;18.08;57.75
60897;BME280;46749;32.932;-117.130;2023-06-01T03:01:57;100716.53;;;18.13;57.83
60897;BME280;46749;32.932;-117.130;2023-06-01T03:04:23;100724.47;;;18.18;57.67
60897;BME280;46749;32.932;-117.130;2023-06-01T03:06:50;100725.31;;;18.15;57.84
60897;BME280;46749;32.932;-117.130;2023-06-01T03:09:16;100725.22;;;18.01;57.89
60897;BME280;46749;32.932;-117.130;2023-06-01T03:11:42;100726.03;;;17.91;58.28
60897;BME280;46749;32.932;-117.130;2023-06-01T03:14:10;100730.44;;;17.97;58.27
60897;BME280;46749;32.932;-117.130;2023-06-01T03:16:36;100723.50;;;18.05;57.95
60897;BME280;46749;32.932;-117.130;2023-06-01T03:19:03;100734.91;;;18.10;57.97
60897;BME280;46749;32.932;-117.130;2023-06-01T03:21:29;100726.19;;;18.13;57.67
60897;BME280;46749;32.932;-117.130;2023-06-01T03:23:57;100730.50;;;18.03;57.92
60897;BME280;46749;32.932;-117.130;2023-06-01T03:26:23;100726.03;;;17.91;58.28
60897;BME280;46749;32.932;-117.130;2023-06-01T03:28:51;100723.44;;;17.97;58.26
60897;BME280;46749;32.932;-117.130;2023-06-01T03:31:17;100716.50;;;18.04;57.86
60897;BME280;46749;32.932;-117.130;2023-06-01T03:33:44;100718.25;;;18.10;57.65
60897;BME280;46749;32.932;-117.130;2023-06-01T03:36:10;100715.66;;;18.13;57.58
60897;BME280;46749;32.932;-117.130;2023-06-01T03:38:37;100706.84;;;18.01;58.08
60897;BME280;46749;32.932;-117.130;2023-06-01T03:41:03;100713.78;;;17.90;58.21
60897;BME280;46749;32.932;-117.130;2023-06-01T03:43:31;100719.06;;;17.93;57.98
60897;BME280;46749;32.932;-117.130;2023-06-01T03:45:58;100722.59;;;18.01;57.80
60897;BME280;46749;32.932;-117.130;2023-06-01T03:48:24;100719.13;;;18.07;57.82
60897;BME280;46749;32.932;-117.130;2023-06-01T03:50:50;100722.66;;;18.11;57.84
60897;BME280;46749;32.932;-117.130;2023-06-01T03:53:16;100713.84;;;18.02;57.82
60897;BME280;46749;32.932;-117.130;2023-06-01T03:55:43;100717.28;;;17.91;58.39
60897;BME280;46749;32.932;-117.130;2023-06-01T03:58:09;100714.66;;;17.91;58.29
60897;BME280;46749;32.932;-117.130;2023-06-01T04:00:35;100714.72;;;18.00;58.11
60897;BME280;46749;32.932;-117.130;2023-06-01T04:03:02;100717.38;;;18.06;57.81
60897;BME280;46749;32.932;-117.130;2023-06-01T04:05:32;100722.66;;;18.11;57.66
60897;BME280;46749;32.932;-117.130;2023-06-01T04:07:59;100723.47;;;18.03;57.84
60897;BME280;46749;32.932;-117.130;2023-06-01T04:10:25;100732.19;;;17.92;58.23
60897;BME280;46749;32.932;-117.130;2023-06-01T04:12:52;100728.69;;;17.94;58.09
60897;BME280;46749;32.932;-117.130;2023-06-01T04:15:20;100724.34;;;17.99;58.13
60897;BME280;46749;32.932;-117.130;2023-06-01T04:17:46;100736.66;;;18.05;57.86
60897;BME280;46749;32.932;-117.130;2023-06-01T04:20:15;100734.91;;;18.09;57.62
60897;BME280;46749;32.932;-117.130;2023-06-01T04:22:42;100734.88;;;17.98;58.05
60897;BME280;46749;32.932;-117.130;2023-06-01T04:25:11;100739.16;;;17.88;58.11
60897;BME280;46749;32.932;-117.130;2023-06-01T04:27:42;100731.28;;;17.85;58.33
60897;BME280;46749;32.932;-117.130;2023-06-01T04:30:11;100737.47;;;17.95;58.08
60897;BME280;46749;32.932;-117.130;2023-06-01T04:32:37;100731.38;;;18.03;57.63
60897;BME280;46749;32.932;-117.130;2023-06-01T04:35:04;100741.03;;;18.08;57.67
60897;BME280;46749;32.932;-117.130;2023-06-01T04:37:35;100743.63;;;18.03;57.84
60897;BME280;46749;32.932;-117.130;2023-06-01T04:40:02;100742.66;;;17.90;58.18
60897;BME280;46749;32.932;-117.130;2023-06-01T04:42:36;100744.41;;;17.85;58.25
60897;BME280;46749;32.932;-117.130;2023-06-01T04:45:07;100740.97;;;17.92;58.08
60897;BME280;46749;32.932;-117.130;2023-06-01T04:47:35;100752.38;;;18.00;57.98
60897;BME280;46749;32.932;-117.130;2023-06-01T04:50:11;100743.66;;;18.04;57.62
60897;BME280;46749;32.932;-117.130;2023-06-01T04:52:38;100741.88;;;18.00;57.77
60897;BME280;46749;32.932;-117.130;2023-06-01T04:55:06;100742.66;;;17.89;58.12
60897;BME280;46749;32.932;-117.130;2023-06-01T04:57:34;100750.50;;;17.84;58.31
60897;BME280;46749;32.932;-117.130;2023-06-01T05:00:02;100739.16;;;17.91;58.11
60897;BME280;46749;32.932;-117.130;2023-06-01T05:02:31;100738.38;;;17.98;58.04
60897;BME280;46749;32.932;-117.130;2023-06-01T05:04:58;100739.25;;;18.03;57.72
60897;BME280;46749;32.932;-117.130;2023-06-01T05:07:24;100741.88;;;18.00;57.57
60897;BME280;46749;32.932;-117.130;2023-06-01T05:09:50;100742.66;;;17.89;58.02
60897;BME280;46749;32.932;-117.130;2023-06-01T05:12:16;100751.38;;;17.82;58.31
60897;BME280;46749;32.932;-117.130;2023-06-01T05:14:42;100748.81;;;17.89;58.00
60897;BME280;46749;32.932;-117.130;2023-06-01T05:17:09;100750.59;;;17.96;58.03
60897;BME280;46749;32.932;-117.130;2023-06-01T05:19:35;100748.88;;;18.01;57.45
60897;BME280;46749;32.932;-117.130;2023-06-01T05:22:01;100755.00;;;18.02;57.54
60897;BME280;46749;32.932;-117.130;2023-06-01T05:24:27;100750.56;;;17.90;58.07
60897;BME280;46749;32.932;-117.130;2023-06-01T05:26:53;100756.63;;;17.83;58.25
60897;BME280;46749;32.932;-117.130;2023-06-01T05:29:20;100761.06;;;17.89;58.07
60897;BME280;46749;32.932;-117.130;2023-06-01T05:31:47;100758.47;;;17.96;58.02
60897;BME280;46749;32.932;-117.130;2023-06-01T05:34:13;100768.16;;;18.00;57.68
60897;BME280;46749;32.932;-117.130;2023-06-01T05:36:40;100758.53;;;18.02;57.61
60897;BME280;46749;32.932;-117.130;2023-06-01T05:39:06;100757.56;;;17.91;57.96
60897;BME280;46749;32.932;-117.130;2023-06-01T05:41:33;100762.81;;;17.85;58.12
60897;BME280;46749;32.932;-117.130;2023-06-01T05:43:59;100759.31;;;17.89;58.13
60897;BME280;46749;32.932;-117.130;2023-06-01T05:46:25;100756.72;;;17.95;57.83
60897;BME280;46749;32.932;-117.130;2023-06-01T05:48:51;100761.16;;;17.99;57.77
60897;BME280;46749;32.932;-117.130;2023-06-01T05:51:17;100758.50;;;17.98;57.66
60897;BME280;46749;32.932;-117.130;2023-06-01T05:53:44;100754.06;;;17.86;57.86
60897;BME280;46749;32.932;-117.130;2023-06-01T05:56:11;100760.97;;;17.75;58.42
60897;BME280;46749;32.932;-117.130;2023-06-01T05:58:37;100755.75;;;17.81;58.11
60897;BME280;46749;32.932;-117.130;2023-06-01T06:01:03;100754.06;;;17.89;58.01
60897;BME280;46749;32.932;-117.130;2023-06-01T06:03:30;100751.47;;;17.94;57.74
60897;BME280;46749;32.932;-117.130;2023-06-01T06:05:56;100759.41;;;17.98;57.72
60897;BME280;46749;32.932;-117.130;2023-06-01T06:08:23;100758.44;;;17.90;57.94
60897;BME280;46749;32.932;-117.130;2023-06-01T06:10:49;100752.22;;;17.77;58.13
60897;BME280;46749;32.932;-117.130;2023-06-01T06:13:15;100749.63;;;17.79;58.20
60897;BME280;46749;32.932;-117.130;2023-06-01T06:15:41;100743.53;;;17.88;57.90
60897;BME280;46749;32.932;-117.130;2023-06-01T06:18:07;100741.84;;;17.93;57.73
60897;BME280;46749;32.932;-117.130;2023-06-01T06:20:34;100740.09;;;17.96;57.68
60897;BME280;46749;32.932;-117.130;2023-06-01T06:23:00;100741.78;;;17.91;57.73
60897;BME280;46749;32.932;-117.130;2023-06-01T06:25:26;100744.38;;;17.81;58.02
60897;BME280;46749;32.932;-117.130;2023-06-01T06:27:52;100742.59;;;17.78;58.24
60897;BME280;46749;32.932;-117.130;2023-06-01T06:30:18;100754.06;;;17.86;57.84
60897;BME280;46749;32.932;-117.130;2023-06-01T06:32:45;100751.47;;;17.92;57.71
60897;BME280;46749;32.932;-117.130;2023-06-01T06:35:11;100753.22;;;17.95;57.69
60897;BME280;46749;32.932;-117.130;2023-06-01T06:37:40;100757.56;;;17.91;57.68
60897;BME280;46749;32.932;-117.130;2023-06-01T06:40:08;100760.13;;;17.79;57.98
60897;BME280;46749;32.932;-117.130;2023-06-01T06:42:34;100762.72;;;17.76;58.02
60897;BME280;46749;32.932;-117.130;2023-06-01T06:45:01;100764.53;;;17.83;58.04
60897;BME280;46749;32.932;-117.130;2023-06-01T06:47:28;100772.44;;;17.89;57.98
60897;BME280;46749;32.932;-117.130;2023-06-01T06:49:54;100762.84;;;17.93;57.65
60897;BME280;46749;32.932;-117.130;2023-06-01T06:52:20;100767.19;;;17.91;57.84
60897;BME280;46749;32.932;-117.130;2023-06-01T06:54:46;100772.34;;;17.78;57.98
60897;BME280;46749;32.932;-117.130;2023-06-01T06:57:12;100763.56;;;17.72;58.43
60897;BME280;46749;32.932;-117.130;2023-06-01T06:59:38;100764.50;;;17.80;58.12
60897;BME280;46749;32.932;-117.130;2023-06-01T07:02:05;100761.94;;;17.86;57.72
60897;BME280;46749;32.932;-117.130;2023-06-01T07:04:31;100767.19;;;17.91;57.69
60897;BME280;46749;32.932;-117.130;2023-06-01T07:06:57;100757.56;;;17.91;57.59
60897;BME280;46749;32.932;-117.130;2023-06-01T07:09:26;100758.38;;;17.79;57.89
60897;BME280;46749;32.932;-117.130;2023-06-01T07:11:52;100759.19;;;17.72;58.23
60897;BME280;46749;32.932;-117.130;2023-06-01T07:14:18;100760.13;;;17.79;58.05
60897;BME280;46749;32.932;-117.130;2023-06-01T07:16:44;100761.94;;;17.86;57.70
60897;BME280;46749;32.932;-117.130;2023-06-01T07:19:12;100761.06;;;17.90;57.58
60897;BME280;46749;32.932;-117.130;2023-06-01T07:21:38;100755.81;;;17.90;57.57
60897;BME280;46749;32.932;-117.130;2023-06-01T07:24:05;100760.97;;;17.78;57.85
60897;BME280;46749;32.932;-117.130;2023-06-01T07:26:31;100761.75;;;17.69;58.22
60897;BME280;46749;32.932;-117.130;2023-06-01T07:28:57;100758.34;;;17.75;58.20
60897;BME280;46749;32.932;-117.130;2023-06-01T07:31:25;100767.16;;;17.83;57.74
60897;BME280;46749;32.932;-117.130;2023-06-01T07:33:53;100761.94;;;17.88;57.62
60897;BME280;46749;32.932;-117.130;2023-06-01T07:36:22;100761.06;;;17.90;57.70
60897;BME280;46749;32.932;-117.130;2023-06-01T07:38:51;100761.00;;;17.79;57.64
60897;BME280;46749;32.932;-117.130;2023-06-01T07:41:18;100755.59;;;17.66;58.29
60897;BME280;46749;32.932;-117.130;2023-06-01T07:43:44;100755.66;;;17.72;57.85
60897;BME280;46749;32.932;-117.130;2023-06-01T07:46:11;100750.50;;;17.79;57.84
60897;BME280;46749;32.932;-117.130;2023-06-01T07:48:37;100754.06;;;17.86;57.67
60897;BME280;46749;32.932;-117.130;2023-06-01T07:51:05;100748.81;;;17.89;57.52
60897;BME280;46749;32.932;-117.130;2023-06-01T07:53:32;100753.13;;;17.79;57.59
60897;BME280;46749;32.932;-117.130;2023-06-01T07:55:58;100745.09;;;17.66;58.09
60897;BME280;46749;32.932;-117.130;2023-06-01T07:58:25;100743.38;;;17.68;58.35
60897;BME280;46749;32.932;-117.130;2023-06-01T08:00:51;100741.72;;;17.76;57.76
60897;BME280;46749;32.932;-117.130;2023-06-01T08:03:17;100743.50;;;17.82;57.78
60897;BME280;46749;32.932;-117.130;2023-06-01T08:05:46;100739.16;;;17.85;57.69
60897;BME280;46749;32.932;-117.130;2023-06-01T08:08:12;100741.72;;;17.77;57.89
60897;BME280;46749;32.932;-117.130;2023-06-01T08:10:40;100743.34;;;17.65;58.10
60897;BME280;46749;32.932;-117.130;2023-06-01T08:13:07;100742.47;;;17.66;58.12
60897;BME280;46749;32.932;-117.130;2023-06-01T08:15:33;100748.69;;;17.74;58.05
60897;BME280;46749;32.932;-117.130;2023-06-01T08:18:02;100747.88;;;17.79;57.69
60897;BME280;46749;32.932;-117.130;2023-06-01T08:20:29;100747.00;;;17.82;57.50
60897;BME280;46749;32.932;-117.130;2023-06-01T08:22:55;100742.59;;;17.76;57.78
60897;BME280;46749;32.932;-117.130;2023-06-01T08:25:22;100738.06;;;17.65;57.95
60897;BME280;46749;32.932;-117.130;2023-06-01T08:27:48;100743.34;;;17.65;58.00
60897;BME280;46749;32.932;-117.130;2023-06-01T08:30:15;100744.31;;;17.73;57.94
60897;BME280;46749;32.932;-117.130;2023-06-01T08:32:41;100746.97;;;17.77;57.62
60897;BME280;46749;32.932;-117.130;2023-06-01T08:35:08;100743.50;;;17.83;57.49
60897;BME280;46749;32.932;-117.130;2023-06-01T08:37:34;100743.50;;;17.80;57.63
60897;BME280;46749;32.932;-117.130;2023-06-01T08:40:02;100738.94;;;17.65;57.78
60897;BME280;46749;32.932;-117.130;2023-06-01T08:42:39;100740.69;;;17.60;58.12
60897;BME280;46749;32.932;-117.130;2023-06-01T08:45:11;100743.38;;;17.68;58.10
60897;BME280;46749;32.932;-117.130;2023-06-01T08:47:39;100736.44;;;17.74;57.65
60897;BME280;46749;32.932;-117.130;2023-06-01T08:50:08;100738.22;;;17.78;57.74
60897;BME280;46749;32.932;-117.130;2023-06-01T08:52:36;100738.19;;;17.74;57.65
60897;BME280;46749;32.932;-117.130;2023-06-01T08:55:04;100738.06;;;17.62;57.98
60897;BME280;46749;32.932;-117.130;2023-06-01T08:57:31;100740.66;;;17.57;58.23
60897;BME280;46749;32.932;-117.130;2023-06-01T08:59:58;100732.81;;;17.65;58.01
60897;BME280;46749;32.932;-117.130;2023-06-01T09:02:25;100736.44;;;17.73;57.74
60897;BME280;46749;32.932;-117.130;2023-06-01T09:04:53;100731.19;;;17.76;57.57
60897;BME280;46749;32.932;-117.130;2023-06-01T09:07:19;100731.19;;;17.73;57.54
60897;BME280;46749;32.932;-117.130;2023-06-01T09:09:46;100724.94;;;17.60;57.92
60897;BME280;46749;32.932;-117.130;2023-06-01T09:12:38;100725.75;;;17.55;58.22
60897;BME280;46749;32.932;-117.130;2023-06-01T09:15:10;100732.81;;;17.65;57.82
60897;BME280;46749;32.932;-117.130;2023-06-01T09:17:39;100729.38;;;17.70;57.51
60897;BME280;46749;32.932;-117.130;2023-06-01T09:20:06;100732.06;;;17.75;57.64
60897;BME280;46749;32.932;-117.130;2023-06-01T09:22:43;100729.38;;;17.70;57.52
60897;BME280;46749;32.932;-117.130;2023-06-01T09:25:10;100727.53;;;17.57;57.96
60897;BME280;46749;32.932;-117.130;2023-06-01T09:27:51;100729.28;;;17.57;57.92
60897;BME280;46749;32.932;-117.130;2023-06-01T09:30:39;100732.81;;;17.65;57.65
60897;BME280;46749;32.932;-117.130;2023-06-01T09:33:15;100726.75;;;17.70;57.50
60897;BME280;46749;32.932;-117.130;2023-06-01T09:38:09;100724.06;;;17.66;57.77
60897;BME280;46749;32.932;-117.130;2023-06-01T09:40:37;100732.72;;;17.52;58.02
60897;BME280;46749;32.932;-117.130;2023-06-01T09:43:21;100730.97;;;17.53;58.10
60897;BME280;46749;32.932;-117.130;2023-06-01T09:46:10;100731.94;;;17.61;57.64
60897;BME280;46749;32.932;-117.130;2023-06-01T09:48:40;100727.63;;;17.68;57.47
60897;BME280;46749;32.932;-117.130;2023-06-01T09:51:24;100725.88;;;17.70;57.46
60897;BME280;46749;32.932;-117.130;2023-06-01T09:53:55;100724.91;;;17.59;57.63
60897;BME280;46749;32.932;-117.130;2023-06-01T09:56:21;100735.31;;;17.46;58.20
60897;BME280;46749;32.932;-117.130;2023-06-01T09:58:47;100723.97;;;17.53;57.71
60897;BME280;46749;32.932;-117.130;2023-06-01T10:01:15;100723.19;;;17.61;57.70
60897;BME280;46749;32.932;-117.130;2023-06-01T10:03:44;100730.25;;;17.66;57.48
60897;BME280;46749;32.932;-117.130;2023-06-01T10:06:12;100718.84;;;17.69;57.28
60897;BME280;46749;32.932;-117.130;2023-06-01T10:08:39;100724.91;;;17.59;57.81
60897;BME280;46749;32.932;-117.130;2023-06-01T10:11:07;100724.94;;;17.60;57.62
60897;BME280;46749;32.932;-117.130;2023-06-01T10:13:35;100720.56;;;17.64;57.19
60897;BME280;46749;32.932;-117.130;2023-06-01T10:16:01;100720.59;;;17.67;57.38
60897;BME280;46749;32.932;-117.130;2023-06-01T10:18:29;100726.75;;;17.69;57.46
60897;BME280;46749;32.932;-117.130;2023-06-01T10:20:56;100724.91;;;17.59;57.48
60897;BME280;46749;32.932;-117.130;2023-06-01T10:23:23;100728.28;;;17.45;58.01
60897;BME280;46749;32.932;-117.130;2023-06-01T10:25:52;100726.44;;;17.34;58.38
60897;BME280;46749;32.932;-117.130;2023-06-01T10:28:19;100727.41;;;17.42;58.15
60897;BME280;46749;32.932;-117.130;2023-06-01T10:30:46;100726.59;;;17.50;57.83
60897;BME280;46749;32.932;-117.130;2023-06-01T10:33:12;100731.91;;;17.58;57.33
60897;BME280;46749;32.932;-117.130;2023-06-01T10:40:45;100726.50;;;17.40;57.92
60897;BME280;46749;32.932;-117.130;2023-06-01T10:46:03;100730.97;;;17.51;57.65
60897;BME280;46749;32.932;-117.130;2023-06-01T10:48:57;100743.28;;;17.59;57.43
60897;BME280;46749;32.932;-117.130;2023-06-01T10:51:23;100739.81;;;17.63;57.44
60897;BME280;46749;32.932;-117.130;2023-06-01T10:54:28;100733.59;;;17.50;57.60
60897;BME280;46749;32.932;-117.130;2023-06-01T10:57:23;100736.16;;;17.42;58.09
60897;BME280;46749;32.932;-117.130;2023-06-01T11:02:35;100733.66;;;17.58;57.60
60897;BME280;46749;32.932;-117.130;2023-06-01T11:05:36;100732.81;;;17.62;57.50
60897;BME280;46749;32.932;-117.130;2023-06-01T11:08:04;100744.97;;;17.52;57.56
60897;BME280;46749;32.932;-117.130;2023-06-01T11:13:26;100742.25;;;17.38;58.03
60897;BME280;46749;32.932;-117.130;2023-06-01T11:19:02;100739.78;;;17.57;57.52
60897;BME280;46749;32.932;-117.130;2023-06-01T11:24:04;100744.06;;;17.45;57.69
60897;BME280;46749;32.932;-117.130;2023-06-01T11:26:38;100745.72;;;17.36;58.08
60897;BME280;46749;32.932;-117.130;2023-06-01T11:29:09;100742.28;;;17.43;58.05
60897;BME280;46749;32.932;-117.130;2023-06-01T11:31:48;100740.59;;;17.51;57.56
60897;BME280;46749;32.932;-117.130;2023-06-01T11:34:19;100739.78;;;17.58;57.30
60897;BME280;46749;32.932;-117.130;2023-06-01T11:36:47;100744.16;;;17.59;57.29
60897;BME280;46749;32.932;-117.130;2023-06-01T11:41:47;100743.06;;;17.34;58.07
60897;BME280;46749;32.932;-117.130;2023-06-01T11:44:14;100742.28;;;17.43;57.89
60897;BME280;46749;32.932;-117.130;2023-06-01T11:47:07;100742.34;;;17.50;57.80
60897;BME280;46749;32.932;-117.130;2023-06-01T13:46:23;100840.19;;;17.30;58.29
60897;BME280;46749;32.932;-117.130;2023-06-01T14:28:15;100868.59;;;16.91;60.05
60897;BME280;46749;32.932;-117.130;2023-06-01T14:30:41;100873.84;;;16.91;60.48
60897;BME280;46749;32.932;-117.130;2023-06-01T14:33:08;100885.22;;;16.92;59.88
60897;BME280;46749;32.932;-117.130;2023-06-01T14:35:34;100888.72;;;16.92;60.58
60897;BME280;46749;32.932;-117.130;2023-06-01T14:38:00;100895.66;;;16.90;60.31
60897;BME280;46749;32.932;-117.130;2023-06-01T14:40:26;100900.91;;;16.89;60.43
60897;BME280;46749;32.932;-117.130;2023-06-01T14:42:52;100892.16;;;16.88;60.30
60897;BME280;46749;32.932;-117.130;2023-06-01T14:45:19;100889.50;;;16.87;60.21
60897;BME280;46749;32.932;-117.130;2023-06-01T14:47:47;100892.13;;;16.85;60.16
60897;BME280;46749;32.932;-117.130;2023-06-01T14:50:13;100904.38;;;16.85;60.23
60897;BME280;46749;32.932;-117.130;2023-06-01T14:52:40;100900.00;;;16.85;60.07
60897;BME280;46749;32.932;-117.130;2023-06-01T14:55:06;100898.22;;;16.84;60.58
60897;BME280;46749;32.932;-117.130;2023-06-01T14:57:32;100902.56;;;16.84;60.37
60897;BME280;46749;32.932;-117.130;2023-06-01T14:59:59;100894.69;;;16.82;60.38
60897;BME280;46749;32.932;-117.130;2023-06-01T15:02:25;100896.44;;;16.82;60.31
60897;BME280;46749;32.932;-117.130;2023-06-01T15:04:51;100897.31;;;16.81;60.41
60897;BME280;46749;32.932;-117.130;2023-06-01T15:07:17;100899.91;;;16.79;60.33
60897;BME280;46749;32.932;-117.130;2023-06-01T15:09:44;100902.53;;;16.79;60.43
60897;BME280;46749;32.932;-117.130;2023-06-01T15:12:10;100903.38;;;16.78;60.44
60897;BME280;46749;32.932;-117.130;2023-06-01T15:14:36;100898.09;;;16.75;60.57
60897;BME280;46749;32.932;-117.130;2023-06-01T15:17:02;100911.22;;;16.77;60.36
60897;BME280;46749;32.932;-117.130;2023-06-01T15:19:29;100913.84;;;16.75;60.30
60897;BME280;46749;32.932;-117.130;2023-06-01T15:21:55;100915.56;;;16.73;60.19
60897;BME280;46749;32.932;-117.130;2023-06-01T15:24:21;100912.94;;;16.73;60.39
60897;BME280;46749;32.932;-117.130;2023-06-01T15:26:47;100917.31;;;16.73;60.41
60897;BME280;46749;32.932;-117.130;2023-06-01T15:29:13;100910.31;;;16.73;60.37
60897;BME280;46749;32.932;-117.130;2023-06-01T15:31:40;100909.44;;;16.73;60.43
60897;BME280;46749;32.932;-117.130;2023-06-01T15:34:07;100915.56;;;16.73;60.46
60897;BME280;46749;32.932;-117.130;2023-06-01T15:36:35;100919.06;;;16.72;60.51